sensor_id;sensor_type;location;lat;lon;timestamp;P1;durP1;ratioP1;P2;durP2;ratioP2
72404;SDS011;60395;52.020;113.548;2023-04-25T00:02:52;73.75;;;29.55;;
72404;SDS011;60395;52.020;113.548;2023-04-25T00:05:58;61.03;;;26.23;;
72404;SDS011;60395;52.020;113.548;2023-04-25T00:09:05;46.40;;;21.80;;
72404;SDS011;60395;52.020;113.548;2023-04-25T00:12:13;45.15;;;20.52;;
72404;SDS011;60395;52.020;113.548;2023-04-25T00:15:18;50.42;;;21.70;;
72404;SDS011;60395;52.020;113.548;2023-04-25T00:18:21;56.40;;;23.70;;
72404;SDS011;60395;52.020;113.548;2023-04-25T00:21:24;49.30;;;22.80;;
72404;SDS011;60395;52.020;113.548;2023-04-25T00:24:28;52.75;;;22.67;;
72404;SDS011;60395;52.020;113.548;2023-04-25T00:27:31;60.20;;;25.55;;
72404;SDS011;60395;52.020;113.548;2023-04-25T00:30:34;58.60;;;27.70;;
72404;SDS011;60395;52.020;113.548;2023-04-25T00:33:37;56.58;;;26.90;;
72404;SDS011;60395;52.020;113.548;2023-04-25T00:36:41;51.53;;;25.67;;
72404;SDS011;60395;52.020;113.548;2023-04-25T00:39:44;59.65;;;26.20;;
72404;SDS011;60395;52.020;113.548;2023-04-25T00:42:47;57.25;;;24.50;;
72404;SDS011;60395;52.020;113.548;2023-04-25T00:45:51;60.17;;;24.75;;
72404;SDS011;60395;52.020;113.548;2023-04-25T00:48:55;59.17;;;23.20;;
72404;SDS011;60395;52.020;113.548;2023-04-25T00:51:59;52.70;;;24.00;;
72404;SDS011;60395;52.020;113.548;2023-04-25T00:55:02;53.33;;;21.85;;
72404;SDS011;60395;52.020;113.548;2023-04-25T00:58:06;59.75;;;23.80;;
72404;SDS011;60395;52.020;113.548;2023-04-25T01:01:10;59.85;;;24.58;;
72404;SDS011;60395;52.020;113.548;2023-04-25T01:04:14;59.90;;;22.90;;
72404;SDS011;60395;52.020;113.548;2023-04-25T01:07:17;48.58;;;21.92;;
72404;SDS011;60395;52.020;113.548;2023-04-25T01:10:21;51.92;;;19.77;;
72404;SDS011;60395;52.020;113.548;2023-04-25T01:13:24;52.33;;;20.35;;
72404;SDS011;60395;52.020;113.548;2023-04-25T01:16:28;55.35;;;20.85;;
72404;SDS011;60395;52.020;113.548;2023-04-25T01:19:32;45.92;;;20.38;;
72404;SDS011;60395;52.020;113.548;2023-04-25T01:22:35;55.70;;;22.20;;
72404;SDS011;60395;52.020;113.548;2023-04-25T01:25:38;56.45;;;19.77;;
72404;SDS011;60395;52.020;113.548;2023-04-25T01:28:42;47.33;;;21.17;;
72404;SDS011;60395;52.020;113.548;2023-04-25T01:31:46;52.25;;;20.85;;
72404;SDS011;60395;52.020;113.548;2023-04-25T01:34:50;54.72;;;19.88;;
72404;SDS011;60395;52.020;113.548;2023-04-25T01:37:53;54.10;;;19.10;;
72404;SDS011;60395;52.020;113.548;2023-04-25T01:40:57;46.22;;;16.83;;
72404;SDS011;60395;52.020;113.548;2023-04-25T01:44:02;40.70;;;15.77;;
72404;SDS011;60395;52.020;113.548;2023-04-25T01:47:05;34.88;;;15.13;;
72404;SDS011;60395;52.020;113.548;2023-04-25T01:50:09;42.50;;;13.85;;
72404;SDS011;60395;52.020;113.548;2023-04-25T01:53:14;45.90;;;16.42;;
72404;SDS011;60395;52.020;113.548;2023-04-25T01:56:19;35.97;;;14.10;;
72404;SDS011;60395;52.020;113.548;2023-04-25T01:59:23;34.47;;;12.10;;
72404;SDS011;60395;52.020;113.548;2023-04-25T02:02:48;36.65;;;13.95;;
72404;SDS011;60395;52.020;113.548;2023-04-25T02:06:06;30.52;;;13.15;;
72404;SDS011;60395;52.020;113.548;2023-04-25T02:09:13;28.30;;;12.50;;
72404;SDS011;60395;52.020;113.548;2023-04-25T02:12:21;33.85;;;11.77;;
72404;SDS011;60395;52.020;113.548;2023-04-25T02:15:44;32.67;;;10.43;;
72404;SDS011;60395;52.020;113.548;2023-04-25T02:24:59;21.23;;;9.27;;
72404;SDS011;60395;52.020;113.548;2023-04-25T02:28:02;33.97;;;11.48;;
72404;SDS011;60395;52.020;113.548;2023-04-25T02:31:06;30.52;;;10.35;;
72404;SDS011;60395;52.020;113.548;2023-04-25T02:34:09;17.83;;;7.70;;
72404;SDS011;60395;52.020;113.548;2023-04-25T02:37:13;16.40;;;6.25;;
72404;SDS011;60395;52.020;113.548;2023-04-25T02:40:19;18.00;;;6.47;;
72404;SDS011;60395;52.020;113.548;2023-04-25T02:43:24;37.92;;;6.95;;
72404;SDS011;60395;52.020;113.548;2023-04-25T02:46:28;25.75;;;7.53;;
72404;SDS011;60395;52.020;113.548;2023-04-25T02:49:40;21.23;;;7.40;;
72404;SDS011;60395;52.020;113.548;2023-04-25T02:52:43;32.22;;;8.10;;
72404;SDS011;60395;52.020;113.548;2023-04-25T02:55:55;25.08;;;7.45;;
72404;SDS011;60395;52.020;113.548;2023-04-25T02:59:00;20.08;;;6.65;;
72404;SDS011;60395;52.020;113.548;2023-04-25T03:02:05;28.75;;;7.25;;
72404;SDS011;60395;52.020;113.548;2023-04-25T03:05:08;30.17;;;7.70;;
72404;SDS011;60395;52.020;113.548;2023-04-25T03:08:12;21.55;;;7.40;;
72404;SDS011;60395;52.020;113.548;2023-04-25T03:11:17;30.48;;;6.95;;
72404;SDS011;60395;52.020;113.548;2023-04-25T03:14:22;24.10;;;6.60;;
72404;SDS011;60395;52.020;113.548;2023-04-25T03:17:26;19.98;;;5.38;;
72404;SDS011;60395;52.020;113.548;2023-04-25T03:20:29;20.85;;;5.72;;
72404;SDS011;60395;52.020;113.548;2023-04-25T03:23:33;17.90;;;5.40;;
72404;SDS011;60395;52.020;113.548;2023-04-25T03:26:36;27.67;;;6.68;;
72404;SDS011;60395;52.020;113.548;2023-04-25T03:29:39;21.70;;;5.28;;
72404;SDS011;60395;52.020;113.548;2023-04-25T03:32:43;23.98;;;4.75;;
72404;SDS011;60395;52.020;113.548;2023-04-25T03:35:50;14.32;;;4.53;;
72404;SDS011;60395;52.020;113.548;2023-04-25T03:38:54;16.40;;;4.00;;
72404;SDS011;60395;52.020;113.548;2023-04-25T03:41:58;11.57;;;2.90;;
72404;SDS011;60395;52.020;113.548;2023-04-25T03:45:03;10.63;;;2.72;;
72404;SDS011;60395;52.020;113.548;2023-04-25T03:48:08;14.40;;;3.25;;
72404;SDS011;60395;52.020;113.548;2023-04-25T03:51:12;5.03;;;2.10;;
72404;SDS011;60395;52.020;113.548;2023-04-25T03:54:18;5.05;;;1.80;;
72404;SDS011;60395;52.020;113.548;2023-04-25T03:57:29;6.10;;;1.80;;
72404;SDS011;60395;52.020;113.548;2023-04-25T04:00:33;7.93;;;2.63;;
72404;SDS011;60395;52.020;113.548;2023-04-25T04:03:36;8.75;;;2.15;;
72404;SDS011;60395;52.020;113.548;2023-04-25T04:06:40;12.45;;;2.40;;
72404;SDS011;60395;52.020;113.548;2023-04-25T04:09:50;6.68;;;1.88;;
72404;SDS011;60395;52.020;113.548;2023-04-25T04:12:59;8.45;;;2.67;;
72404;SDS011;60395;52.020;113.548;2023-04-25T04:16:02;12.32;;;2.13;;
72404;SDS011;60395;52.020;113.548;2023-04-25T04:19:07;3.42;;;1.65;;
72404;SDS011;60395;52.020;113.548;2023-04-25T04:22:12;2.65;;;1.60;;
72404;SDS011;60395;52.020;113.548;2023-04-25T04:25:16;4.03;;;1.60;;
72404;SDS011;60395;52.020;113.548;2023-04-25T04:28:58;7.63;;;1.58;;
72404;SDS011;60395;52.020;113.548;2023-04-25T04:32:24;10.77;;;1.90;;
72404;SDS011;60395;52.020;113.548;2023-04-25T04:35:28;10.52;;;1.65;;
72404;SDS011;60395;52.020;113.548;2023-04-25T04:38:32;6.07;;;2.13;;
72404;SDS011;60395;52.020;113.548;2023-04-25T04:41:38;4.43;;;1.40;;
72404;SDS011;60395;52.020;113.548;2023-04-25T04:44:45;6.22;;;1.60;;
72404;SDS011;60395;52.020;113.548;2023-04-25T04:47:59;2.35;;;1.38;;
72404;SDS011;60395;52.020;113.548;2023-04-25T04:51:26;3.40;;;1.50;;
72404;SDS011;60395;52.020;113.548;2023-04-25T04:54:47;6.30;;;1.63;;
72404;SDS011;60395;52.020;113.548;2023-04-25T04:58:16;5.93;;;1.45;;
72404;SDS011;60395;52.020;113.548;2023-04-25T05:01:36;8.77;;;1.80;;
72404;SDS011;60395;52.020;113.548;2023-04-25T05:05:12;9.38;;;2.35;;
72404;SDS011;60395;52.020;113.548;2023-04-25T05:08:50;6.63;;;1.73;;
72404;SDS011;60395;52.020;113.548;2023-04-25T05:12:07;9.98;;;1.80;;
72404;SDS011;60395;52.020;113.548;2023-04-25T05:15:25;3.75;;;1.58;;
72404;SDS011;60395;52.020;113.548;2023-04-25T05:18:58;4.95;;;1.40;;
72404;SDS011;60395;52.020;113.548;2023-04-25T05:22:16;2.50;;;1.60;;
72404;SDS011;60395;52.020;113.548;2023-04-25T05:25:34;2.95;;;1.27;;
72404;SDS011;60395;52.020;113.548;2023-04-25T05:28:44;13.38;;;2.33;;
72404;SDS011;60395;52.020;113.548;2023-04-25T05:32:08;3.30;;;1.38;;
72404;SDS011;60395;52.020;113.548;2023-04-25T05:35:11;2.83;;;1.48;;
72404;SDS011;60395;52.020;113.548;2023-04-25T05:38:20;2.90;;;1.40;;
72404;SDS011;60395;52.020;113.548;2023-04-25T05:42:03;5.75;;;1.60;;
72404;SDS011;60395;52.020;113.548;2023-04-25T05:45:35;2.85;;;1.70;;
72404;SDS011;60395;52.020;113.548;2023-04-25T05:48:39;3.13;;;1.73;;
72404;SDS011;60395;52.020;113.548;2023-04-25T05:52:02;4.35;;;1.33;;
72404;SDS011;60395;52.020;113.548;2023-04-25T05:55:41;5.43;;;1.52;;
72404;SDS011;60395;52.020;113.548;2023-04-25T05:58:56;5.65;;;1.65;;
72404;SDS011;60395;52.020;113.548;2023-04-25T06:02:00;4.90;;;1.70;;
72404;SDS011;60395;52.020;113.548;2023-04-25T06:05:06;10.15;;;1.88;;
72404;SDS011;60395;52.020;113.548;2023-04-25T06:08:11;2.47;;;1.58;;
72404;SDS011;60395;52.020;113.548;2023-04-25T06:11:14;3.85;;;1.35;;
72404;SDS011;60395;52.020;113.548;2023-04-25T06:14:17;13.57;;;2.00;;
72404;SDS011;60395;52.020;113.548;2023-04-25T06:17:24;26.80;;;1.95;;
72404;SDS011;60395;52.020;113.548;2023-04-25T06:20:28;10.93;;;1.90;;
72404;SDS011;60395;52.020;113.548;2023-04-25T06:23:33;8.55;;;1.50;;
72404;SDS011;60395;52.020;113.548;2023-04-25T06:26:40;7.10;;;1.85;;
72404;SDS011;60395;52.020;113.548;2023-04-25T06:29:43;7.28;;;1.60;;
72404;SDS011;60395;52.020;113.548;2023-04-25T06:32:48;12.52;;;2.85;;
72404;SDS011;60395;52.020;113.548;2023-04-25T06:35:51;4.75;;;1.45;;
72404;SDS011;60395;52.020;113.548;2023-04-25T06:38:59;5.03;;;1.50;;
72404;SDS011;60395;52.020;113.548;2023-04-25T06:42:02;4.47;;;2.08;;
72404;SDS011;60395;52.020;113.548;2023-04-25T06:45:30;3.33;;;1.65;;
72404;SDS011;60395;52.020;113.548;2023-04-25T06:48:33;3.33;;;1.42;;
72404;SDS011;60395;52.020;113.548;2023-04-25T06:51:40;8.32;;;2.60;;
72404;SDS011;60395;52.020;113.548;2023-04-25T06:54:44;5.35;;;1.60;;
72404;SDS011;60395;52.020;113.548;2023-04-25T06:58:09;11.07;;;1.95;;
72404;SDS011;60395;52.020;113.548;2023-04-25T07:01:30;8.73;;;1.40;;
72404;SDS011;60395;52.020;113.548;2023-04-25T07:04:38;21.90;;;2.92;;
72404;SDS011;60395;52.020;113.548;2023-04-25T07:07:43;7.03;;;1.50;;
72404;SDS011;60395;52.020;113.548;2023-04-25T07:10:47;12.77;;;2.72;;
72404;SDS011;60395;52.020;113.548;2023-04-25T07:13:50;5.57;;;1.70;;
72404;SDS011;60395;52.020;113.548;2023-04-25T07:16:54;3.75;;;1.40;;
72404;SDS011;60395;52.020;113.548;2023-04-25T07:20:01;4.60;;;1.45;;
72404;SDS011;60395;52.020;113.548;2023-04-25T07:23:06;3.17;;;1.48;;
72404;SDS011;60395;52.020;113.548;2023-04-25T07:26:09;7.75;;;1.42;;
72404;SDS011;60395;52.020;113.548;2023-04-25T07:29:28;5.53;;;1.40;;
72404;SDS011;60395;52.020;113.548;2023-04-25T07:32:34;2.40;;;1.60;;
72404;SDS011;60395;52.020;113.548;2023-04-25T07:35:37;2.47;;;1.40;;
72404;SDS011;60395;52.020;113.548;2023-04-25T07:38:41;3.55;;;1.58;;
72404;SDS011;60395;52.020;113.548;2023-04-25T07:41:45;3.10;;;1.45;;
72404;SDS011;60395;52.020;113.548;2023-04-25T07:44:54;5.13;;;1.65;;
72404;SDS011;60395;52.020;113.548;2023-04-25T07:47:57;3.95;;;1.50;;
72404;SDS011;60395;52.020;113.548;2023-04-25T07:51:04;2.83;;;1.25;;
72404;SDS011;60395;52.020;113.548;2023-04-25T07:54:09;3.35;;;1.27;;
72404;SDS011;60395;52.020;113.548;2023-04-25T07:57:21;9.15;;;2.00;;
72404;SDS011;60395;52.020;113.548;2023-04-25T08:00:26;4.70;;;1.30;;
72404;SDS011;60395;52.020;113.548;2023-04-25T08:03:50;7.38;;;1.80;;
72404;SDS011;60395;52.020;113.548;2023-04-25T08:06:59;6.13;;;1.75;;
72404;SDS011;60395;52.020;113.548;2023-04-25T08:10:07;2.58;;;1.40;;
72404;SDS011;60395;52.020;113.548;2023-04-25T08:13:10;9.73;;;2.22;;
72404;SDS011;60395;52.020;113.548;2023-04-25T08:16:14;3.65;;;1.50;;
72404;SDS011;60395;52.020;113.548;2023-04-25T08:19:18;7.13;;;2.17;;
72404;SDS011;60395;52.020;113.548;2023-04-25T08:22:22;3.00;;;1.38;;
72404;SDS011;60395;52.020;113.548;2023-04-25T08:25:33;9.48;;;1.63;;
72404;SDS011;60395;52.020;113.548;2023-04-25T08:28:36;3.97;;;1.73;;
72404;SDS011;60395;52.020;113.548;2023-04-25T08:31:40;3.83;;;1.35;;
72404;SDS011;60395;52.020;113.548;2023-04-25T08:34:44;7.53;;;1.60;;
72404;SDS011;60395;52.020;113.548;2023-04-25T08:37:48;3.03;;;1.60;;
72404;SDS011;60395;52.020;113.548;2023-04-25T08:40:52;11.00;;;1.50;;
72404;SDS011;60395;52.020;113.548;2023-04-25T08:43:58;2.42;;;1.52;;
72404;SDS011;60395;52.020;113.548;2023-04-25T08:47:03;4.55;;;1.80;;
72404;SDS011;60395;52.020;113.548;2023-04-25T08:50:15;11.05;;;2.13;;
72404;SDS011;60395;52.020;113.548;2023-04-25T08:53:26;5.93;;;2.00;;
72404;SDS011;60395;52.020;113.548;2023-04-25T08:56:33;4.53;;;1.90;;
72404;SDS011;60395;52.020;113.548;2023-04-25T08:59:37;4.73;;;1.80;;
72404;SDS011;60395;52.020;113.548;2023-04-25T09:02:43;3.72;;;1.40;;
72404;SDS011;60395;52.020;113.548;2023-04-25T09:05:46;3.58;;;2.10;;
72404;SDS011;60395;52.020;113.548;2023-04-25T09:08:50;7.75;;;2.28;;
72404;SDS011;60395;52.020;113.548;2023-04-25T09:11:54;6.95;;;1.80;;
72404;SDS011;60395;52.020;113.548;2023-04-25T09:15:03;6.03;;;1.90;;
72404;SDS011;60395;52.020;113.548;2023-04-25T09:18:28;3.83;;;1.83;;
72404;SDS011;60395;52.020;113.548;2023-04-25T09:21:34;5.97;;;2.20;;
72404;SDS011;60395;52.020;113.548;2023-04-25T09:24:39;5.50;;;1.77;;
72404;SDS011;60395;52.020;113.548;2023-04-25T09:27:51;7.43;;;2.00;;
72404;SDS011;60395;52.020;113.548;2023-04-25T09:31:01;6.93;;;2.33;;
72404;SDS011;60395;52.020;113.548;2023-04-25T09:34:16;10.35;;;2.67;;
72404;SDS011;60395;52.020;113.548;2023-04-25T09:37:28;9.05;;;3.30;;
72404;SDS011;60395;52.020;113.548;2023-04-25T09:40:51;10.78;;;2.46;;
72404;SDS011;60395;52.020;113.548;2023-04-25T09:44:07;7.53;;;2.30;;
72404;SDS011;60395;52.020;113.548;2023-04-25T09:47:12;7.30;;;2.30;;
72404;SDS011;60395;52.020;113.548;2023-04-25T09:50:17;7.75;;;2.25;;
72404;SDS011;60395;52.020;113.548;2023-04-25T09:53:27;6.85;;;2.10;;
72404;SDS011;60395;52.020;113.548;2023-04-25T09:56:42;14.63;;;2.35;;
72404;SDS011;60395;52.020;113.548;2023-04-25T09:59:54;12.73;;;2.58;;
72404;SDS011;60395;52.020;113.548;2023-04-25T10:03:03;3.72;;;2.00;;
72404;SDS011;60395;52.020;113.548;2023-04-25T10:06:38;8.10;;;2.20;;
72404;SDS011;60395;52.020;113.548;2023-04-25T10:09:44;13.10;;;2.40;;
72404;SDS011;60395;52.020;113.548;2023-04-25T10:12:50;4.18;;;1.98;;
72404;SDS011;60395;52.020;113.548;2023-04-25T10:15:54;7.70;;;1.80;;
72404;SDS011;60395;52.020;113.548;2023-04-25T10:19:00;4.97;;;2.25;;
72404;SDS011;60395;52.020;113.548;2023-04-25T10:22:18;9.25;;;2.40;;
72404;SDS011;60395;52.020;113.548;2023-04-25T10:25:28;9.65;;;2.30;;
72404;SDS011;60395;52.020;113.548;2023-04-25T10:28:53;8.75;;;2.47;;
72404;SDS011;60395;52.020;113.548;2023-04-25T10:32:02;6.15;;;2.20;;
72404;SDS011;60395;52.020;113.548;2023-04-25T10:38:18;9.57;;;2.83;;
72404;SDS011;60395;52.020;113.548;2023-04-25T10:41:22;8.82;;;2.58;;
72404;SDS011;60395;52.020;113.548;2023-04-25T10:44:29;46.95;;;22.50;;
72404;SDS011;60395;52.020;113.548;2023-04-25T10:47:34;7.15;;;2.85;;
72404;SDS011;60395;52.020;113.548;2023-04-25T10:50:39;6.13;;;2.53;;
72404;SDS011;60395;52.020;113.548;2023-04-25T10:53:46;3.97;;;1.95;;
72404;SDS011;60395;52.020;113.548;2023-04-25T10:56:58;5.38;;;2.10;;
72404;SDS011;60395;52.020;113.548;2023-04-25T11:03:16;5.00;;;2.05;;
72404;SDS011;60395;52.020;113.548;2023-04-25T11:06:23;3.30;;;1.60;;
72404;SDS011;60395;52.020;113.548;2023-04-25T11:09:29;5.05;;;1.75;;
72404;SDS011;60395;52.020;113.548;2023-04-25T11:12:33;8.10;;;2.15;;
72404;SDS011;60395;52.020;113.548;2023-04-25T11:15:36;4.05;;;1.80;;
72404;SDS011;60395;52.020;113.548;2023-04-25T11:18:43;6.32;;;2.10;;
72404;SDS011;60395;52.020;113.548;2023-04-25T11:21:47;9.05;;;2.20;;
72404;SDS011;60395;52.020;113.548;2023-04-25T11:24:50;5.38;;;2.20;;
72404;SDS011;60395;52.020;113.548;2023-04-25T11:27:55;3.07;;;1.90;;
72404;SDS011;60395;52.020;113.548;2023-04-25T11:31:02;6.70;;;2.15;;
72404;SDS011;60395;52.020;113.548;2023-04-25T11:34:06;3.05;;;1.90;;
72404;SDS011;60395;52.020;113.548;2023-04-25T11:37:10;8.63;;;3.83;;
72404;SDS011;60395;52.020;113.548;2023-04-25T11:40:14;7.88;;;4.53;;
72404;SDS011;60395;52.020;113.548;2023-04-25T11:43:22;4.40;;;1.80;;
72404;SDS011;60395;52.020;113.548;2023-04-25T11:46:25;6.10;;;2.05;;
72404;SDS011;60395;52.020;113.548;2023-04-25T11:49:31;4.63;;;1.80;;
72404;SDS011;60395;52.020;113.548;2023-04-25T11:52:45;4.88;;;1.70;;
72404;SDS011;60395;52.020;113.548;2023-04-25T11:55:49;11.95;;;5.13;;
72404;SDS011;60395;52.020;113.548;2023-04-25T11:58:57;4.97;;;1.90;;
72404;SDS011;60395;52.020;113.548;2023-04-25T12:02:02;6.05;;;2.20;;
72404;SDS011;60395;52.020;113.548;2023-04-25T12:05:09;2.75;;;1.25;;
72404;SDS011;60395;52.020;113.548;2023-04-25T12:08:31;3.33;;;1.70;;
72404;SDS011;60395;52.020;113.548;2023-04-25T12:11:45;8.20;;;1.98;;
72404;SDS011;60395;52.020;113.548;2023-04-25T12:14:50;3.90;;;2.00;;
72404;SDS011;60395;52.020;113.548;2023-04-25T12:17:53;2.85;;;1.77;;
72404;SDS011;60395;52.020;113.548;2023-04-25T12:21:00;3.80;;;1.95;;
72404;SDS011;60395;52.020;113.548;2023-04-25T12:24:37;6.28;;;1.75;;
72404;SDS011;60395;52.020;113.548;2023-04-25T12:27:40;10.20;;;3.55;;
72404;SDS011;60395;52.020;113.548;2023-04-25T12:34:06;3.95;;;2.30;;
72404;SDS011;60395;52.020;113.548;2023-04-25T12:37:10;7.97;;;2.60;;
72404;SDS011;60395;52.020;113.548;2023-04-25T12:40:14;8.40;;;2.90;;
72404;SDS011;60395;52.020;113.548;2023-04-25T12:43:17;10.82;;;3.45;;
72404;SDS011;60395;52.020;113.548;2023-04-25T12:46:21;18.95;;;6.68;;
72404;SDS011;60395;52.020;113.548;2023-04-25T12:49:25;15.00;;;4.82;;
72404;SDS011;60395;52.020;113.548;2023-04-25T12:52:29;8.48;;;2.80;;
72404;SDS011;60395;52.020;113.548;2023-04-25T12:55:32;7.05;;;2.42;;
72404;SDS011;60395;52.020;113.548;2023-04-25T12:58:35;12.98;;;2.97;;
72404;SDS011;60395;52.020;113.548;2023-04-25T13:01:38;4.55;;;2.58;;
72404;SDS011;60395;52.020;113.548;2023-04-25T13:04:42;3.03;;;1.73;;
72404;SDS011;60395;52.020;113.548;2023-04-25T13:07:45;9.73;;;2.60;;
72404;SDS011;60395;52.020;113.548;2023-04-25T13:10:48;17.90;;;6.43;;
72404;SDS011;60395;52.020;113.548;2023-04-25T13:13:51;11.32;;;3.95;;
72404;SDS011;60395;52.020;113.548;2023-04-25T13:16:55;14.10;;;3.90;;
72404;SDS011;60395;52.020;113.548;2023-04-25T13:19:59;13.15;;;4.90;;
72404;SDS011;60395;52.020;113.548;2023-04-25T13:23:02;7.68;;;4.47;;
72404;SDS011;60395;52.020;113.548;2023-04-25T13:26:05;6.57;;;3.08;;
72404;SDS011;60395;52.020;113.548;2023-04-25T13:29:09;9.27;;;2.60;;
72404;SDS011;60395;52.020;113.548;2023-04-25T13:32:12;3.85;;;2.22;;
72404;SDS011;60395;52.020;113.548;2023-04-25T13:35:16;6.88;;;2.63;;
72404;SDS011;60395;52.020;113.548;2023-04-25T13:38:20;4.72;;;2.10;;
72404;SDS011;60395;52.020;113.548;2023-04-25T13:44:27;10.05;;;2.00;;
72404;SDS011;60395;52.020;113.548;2023-04-25T13:47:30;7.90;;;3.78;;
72404;SDS011;60395;52.020;113.548;2023-04-25T13:50:34;6.13;;;2.78;;
72404;SDS011;60395;52.020;113.548;2023-04-25T13:53:37;7.65;;;2.55;;
72404;SDS011;60395;52.020;113.548;2023-04-25T13:56:41;8.60;;;3.07;;
72404;SDS011;60395;52.020;113.548;2023-04-25T13:59:45;5.32;;;2.63;;
72404;SDS011;60395;52.020;113.548;2023-04-25T14:02:49;5.63;;;2.90;;
72404;SDS011;60395;52.020;113.548;2023-04-25T14:05:52;8.25;;;2.95;;
72404;SDS011;60395;52.020;113.548;2023-04-25T14:08:56;8.70;;;3.58;;
72404;SDS011;60395;52.020;113.548;2023-04-25T14:12:01;10.73;;;4.28;;
72404;SDS011;60395;52.020;113.548;2023-04-25T14:15:05;14.10;;;5.30;;
72404;SDS011;60395;52.020;113.548;2023-04-25T14:18:09;15.67;;;4.20;;
72404;SDS011;60395;52.020;113.548;2023-04-25T14:21:12;14.43;;;5.10;;
72404;SDS011;60395;52.020;113.548;2023-04-25T14:24:16;14.15;;;6.13;;
72404;SDS011;60395;52.020;113.548;2023-04-25T14:27:19;12.10;;;5.40;;
72404;SDS011;60395;52.020;113.548;2023-04-25T14:30:23;15.02;;;6.40;;
72404;SDS011;60395;52.020;113.548;2023-04-25T14:33:26;19.25;;;6.22;;
72404;SDS011;60395;52.020;113.548;2023-04-25T14:36:30;19.27;;;6.32;;
72404;SDS011;60395;52.020;113.548;2023-04-25T14:39:34;20.88;;;7.30;;
72404;SDS011;60395;52.020;113.548;2023-04-25T14:42:37;24.73;;;8.82;;
72404;SDS011;60395;52.020;113.548;2023-04-25T14:45:40;28.02;;;7.50;;
72404;SDS011;60395;52.020;113.548;2023-04-25T14:48:44;25.60;;;7.85;;
72404;SDS011;60395;52.020;113.548;2023-04-25T14:51:48;31.10;;;8.47;;
72404;SDS011;60395;52.020;113.548;2023-04-25T14:54:52;23.88;;;9.95;;
72404;SDS011;60395;52.020;113.548;2023-04-25T14:57:56;28.00;;;9.40;;
72404;SDS011;60395;52.020;113.548;2023-04-25T15:00:59;19.70;;;8.57;;
72404;SDS011;60395;52.020;113.548;2023-04-25T15:04:03;23.52;;;9.60;;
72404;SDS011;60395;52.020;113.548;2023-04-25T15:07:10;24.53;;;10.10;;
72404;SDS011;60395;52.020;113.548;2023-04-25T15:10:13;27.73;;;9.63;;
72404;SDS011;60395;52.020;113.548;2023-04-25T15:13:18;26.08;;;10.15;;
72404;SDS011;60395;52.020;113.548;2023-04-25T15:16:21;30.55;;;10.52;;
72404;SDS011;60395;52.020;113.548;2023-04-25T15:19:26;37.33;;;13.23;;
72404;SDS011;60395;52.020;113.548;2023-04-25T15:22:29;34.03;;;12.40;;
72404;SDS011;60395;52.020;113.548;2023-04-25T15:25:33;20.10;;;8.07;;
72404;SDS011;60395;52.020;113.548;2023-04-25T15:28:36;27.80;;;9.68;;
72404;SDS011;60395;52.020;113.548;2023-04-25T15:31:39;22.75;;;9.10;;
72404;SDS011;60395;52.020;113.548;2023-04-25T15:34:43;25.02;;;9.98;;
72404;SDS011;60395;52.020;113.548;2023-04-25T15:37:46;34.47;;;11.82;;
72404;SDS011;60395;52.020;113.548;2023-04-25T15:40:49;25.38;;;9.40;;
72404;SDS011;60395;52.020;113.548;2023-04-25T15:46:57;32.65;;;9.63;;
72404;SDS011;60395;52.020;113.548;2023-04-25T15:50:01;36.88;;;11.82;;
72404;SDS011;60395;52.020;113.548;2023-04-25T15:53:06;35.47;;;11.40;;
72404;SDS011;60395;52.020;113.548;2023-04-25T15:56:09;41.50;;;15.27;;
72404;SDS011;60395;52.020;113.548;2023-04-25T15:59:13;39.10;;;14.00;;
72404;SDS011;60395;52.020;113.548;2023-04-25T16:02:16;44.53;;;15.88;;
72404;SDS011;60395;52.020;113.548;2023-04-25T16:05:20;38.95;;;12.50;;
72404;SDS011;60395;52.020;113.548;2023-04-25T16:08:26;38.50;;;15.43;;
72404;SDS011;60395;52.020;113.548;2023-04-25T16:11:31;36.75;;;13.73;;
72404;SDS011;60395;52.020;113.548;2023-04-25T16:14:34;36.40;;;15.68;;
72404;SDS011;60395;52.020;113.548;2023-04-25T16:17:37;38.17;;;14.90;;
72404;SDS011;60395;52.020;113.548;2023-04-25T16:20:40;51.72;;;18.05;;
72404;SDS011;60395;52.020;113.548;2023-04-25T16:23:44;50.53;;;19.25;;
72404;SDS011;60395;52.020;113.548;2023-04-25T16:26:47;51.50;;;18.27;;
72404;SDS011;60395;52.020;113.548;2023-04-25T16:29:50;50.35;;;20.05;;
72404;SDS011;60395;52.020;113.548;2023-04-25T16:32:53;50.42;;;19.98;;
72404;SDS011;60395;52.020;113.548;2023-04-25T16:39:01;41.25;;;16.25;;
72404;SDS011;60395;52.020;113.548;2023-04-25T16:42:07;45.70;;;18.75;;
72404;SDS011;60395;52.020;113.548;2023-04-25T16:45:11;45.20;;;16.42;;
72404;SDS011;60395;52.020;113.548;2023-04-25T16:51:21;42.40;;;17.35;;
72404;SDS011;60395;52.020;113.548;2023-04-25T16:54:24;46.25;;;16.38;;
72404;SDS011;60395;52.020;113.548;2023-04-25T16:57:27;34.42;;;14.95;;
72404;SDS011;60395;52.020;113.548;2023-04-25T17:00:30;34.05;;;14.35;;
72404;SDS011;60395;52.020;113.548;2023-04-25T17:03:34;41.25;;;15.82;;
72404;SDS011;60395;52.020;113.548;2023-04-25T17:06:37;40.00;;;15.50;;
72404;SDS011;60395;52.020;113.548;2023-04-25T17:09:41;36.60;;;13.98;;
72404;SDS011;60395;52.020;113.548;2023-04-25T17:12:44;31.15;;;13.40;;
72404;SDS011;60395;52.020;113.548;2023-04-25T17:15:49;27.35;;;11.77;;
72404;SDS011;60395;52.020;113.548;2023-04-25T17:18:52;25.00;;;9.27;;
72404;SDS011;60395;52.020;113.548;2023-04-25T17:21:56;22.15;;;9.48;;
72404;SDS011;60395;52.020;113.548;2023-04-25T17:24:59;27.10;;;9.77;;
72404;SDS011;60395;52.020;113.548;2023-04-25T17:28:02;20.48;;;8.48;;
72404;SDS011;60395;52.020;113.548;2023-04-25T17:31:06;18.25;;;8.15;;
72404;SDS011;60395;52.020;113.548;2023-04-25T17:34:11;29.48;;;9.40;;
72404;SDS011;60395;52.020;113.548;2023-04-25T17:37:19;24.40;;;8.88;;
72404;SDS011;60395;52.020;113.548;2023-04-25T17:40:22;37.80;;;10.40;;
72404;SDS011;60395;52.020;113.548;2023-04-25T17:43:25;31.92;;;10.05;;
72404;SDS011;60395;52.020;113.548;2023-04-25T17:46:29;27.98;;;10.13;;
72404;SDS011;60395;52.020;113.548;2023-04-25T17:49:32;25.30;;;10.65;;
72404;SDS011;60395;52.020;113.548;2023-04-25T17:52:39;38.10;;;10.45;;
72404;SDS011;60395;52.020;113.548;2023-04-25T17:55:42;31.10;;;10.27;;
72404;SDS011;60395;52.020;113.548;2023-04-25T17:58:46;25.35;;;9.60;;
72404;SDS011;60395;52.020;113.548;2023-04-25T18:01:49;32.63;;;11.70;;
72404;SDS011;60395;52.020;113.548;2023-04-25T18:04:53;29.08;;;9.93;;
72404;SDS011;60395;52.020;113.548;2023-04-25T18:07:57;33.17;;;10.65;;
72404;SDS011;60395;52.020;113.548;2023-04-25T18:11:00;33.13;;;11.32;;
72404;SDS011;60395;52.020;113.548;2023-04-25T18:14:03;37.58;;;11.80;;
72404;SDS011;60395;52.020;113.548;2023-04-25T18:17:07;46.42;;;12.43;;
72404;SDS011;60395;52.020;113.548;2023-04-25T18:20:11;33.80;;;11.63;;
72404;SDS011;60395;52.020;113.548;2023-04-25T18:23:19;26.55;;;10.85;;
72404;SDS011;60395;52.020;113.548;2023-04-25T18:26:23;23.15;;;8.18;;
72404;SDS011;60395;52.020;113.548;2023-04-25T18:29:26;21.70;;;8.95;;